Time;durP1;ratioP1;P1;durP2;ratioP2;P2;SDS_P1;SDS_P2;PMS_P1;PMS_P2;Temp;Humidity;BMP_temperature;BMP_pressure;BME280_temperature;BME280_humidity;BME280_pressure;Samples;Min_cycle;Max_cycle;Signal;HPM_P1;HPM_P2
2021/10/09 00:04:46;;;;;;;21.60;9.48;;;;;;;4.10;73.51;100591.77;4312806;81;20999;-82
2021/10/09 00:10:48;;;;;;;23.38;10.60;;;;;;;3.94;73.19;100594.43;4314809;81;21523;-81
2021/10/09 00:16:49;;;;;;;20.12;9.23;;;;;;;3.66;73.13;100587.23;4316766;81;20972;-82
2021/10/09 00:22:50;;;;;;;23.05;9.45;;;;;;;3.51;73.62;100586.09;4311227;81;21004;-82
2021/10/09 00:28:51;;;;;;;23.35;10.05;;;;;;;3.73;74.69;100580.36;4323125;81;21550;-82
2021/10/09 00:34:53;;;;;;;26.02;10.90;;;;;;;3.93;74.99;100575.22;4323569;81;21106;-82
2021/10/09 00:40:54;;;;;;;24.35;10.88;;;;;;;3.99;74.79;100584.88;4318405;81;21106;-82
2021/10/09 00:47:03;;;;;;;26.82;10.60;;;;;;;3.93;74.81;100576.58;4312097;81;21071;-83
2021/10/09 00:53:04;;;;;;;24.92;11.33;;;;;;;3.87;75.08;100585.87;4326350;81;21074;-82
2021/10/09 00:59:08;;;;;;;20.25;10.40;;;;;;;3.85;75.11;100581.30;4327304;81;21119;-82
2021/10/09 01:05:10;;;;;;;24.90;11.40;;;;;;;3.86;75.18;100579.64;4322191;81;21063;-82
2021/10/09 01:11:12;;;;;;;26.90;11.65;;;;;;;3.82;75.16;100569.69;4315041;81;21043;-82
2021/10/09 01:17:14;;;;;;;22.10;11.70;;;;;;;3.80;75.46;100574.58;4320894;81;21043;-82
2021/10/09 01:23:20;;;;;;;27.48;12.28;;;;;;;3.50;75.35;100564.15;4224590;83;21594;-83
2021/10/09 01:29:22;;;;;;;19.87;10.15;;;;;;;3.45;75.49;100560.15;4320638;81;21070;-83
2021/10/09 01:35:25;;;;;;;18.12;9.78;;;;;;;3.40;75.86;100558.88;4320805;81;21042;-82
2021/10/09 01:41:28;;;;;;;26.97;11.78;;;;;;;3.40;75.95;100558.88;4325363;81;21686;-81
2021/10/09 01:47:29;;;;;;;22.00;10.70;;;;;;;3.31;76.16;100553.30;4322157;81;21062;-81
2021/10/09 01:53:32;;;;;;;23.12;11.05;;;;;;;3.28;76.68;100550.35;4322758;81;21046;-81
2021/10/09 01:59:34;;;;;;;25.75;11.40;;;;;;;3.26;76.19;100548.50;4294276;81;21038;-81
2021/10/09 02:05:40;;;;;;;29.20;11.35;;;;;;;3.21;76.67;100550.73;4327807;81;21631;-81
2021/10/09 02:11:44;;;;;;;24.12;12.00;;;;;;;3.28;77.22;100553.88;4322462;81;21055;-82
2021/10/09 02:24:30;;;;;;;24.07;11.85;;;;;;;3.28;77.05;100558.47;4320336;81;21097;-82
2021/10/09 02:30:27;;;;;;;20.70;10.43;;;;;;;3.29;77.17;100558.75;4324513;81;21926;-81
2021/10/09 02:36:28;;;;;;;27.73;11.43;;;;;;;3.24;77.49;100562.33;4320996;81;21062;-81
2021/10/09 02:42:30;;;;;;;25.82;10.53;;;;;;;3.17;77.15;100559.97;4314489;81;21000;-82
2021/10/09 02:48:32;;;;;;;25.52;11.80;;;;;;;3.07;77.32;100552.48;4324869;81;20992;-81
2021/10/09 02:54:33;;;;;;;22.55;10.90;;;;;;;3.06;77.52;100563.88;4325270;81;20963;-82
2021/10/09 03:00:35;;;;;;;21.73;10.98;;;;;;;3.02;77.45;100559.33;4320944;81;21066;-82
2021/10/09 03:06:37;;;;;;;27.50;11.65;;;;;;;2.93;77.66;100565.09;4319147;81;21090;-82
2021/10/09 03:12:40;;;;;;;24.57;11.78;;;;;;;2.91;77.83;100560.53;4320039;81;21023;-83
2021/10/09 03:18:42;;;;;;;25.25;12.23;;;;;;;2.91;77.77;100570.00;4318408;81;21023;-82
2021/10/09 03:24:43;;;;;;;23.87;11.43;;;;;;;2.86;77.93;100580.86;4321736;81;22063;-83
2021/10/09 03:30:45;;;;;;;25.95;12.23;;;;;;;2.83;78.20;100578.73;4297850;81;21110;-83
2021/10/09 03:36:47;;;;;;;24.92;10.93;;;;;;;2.90;78.48;100581.36;4320362;81;21059;-83
2021/10/09 03:42:56;;;;;;;22.30;11.45;;;;;;;2.94;78.31;100580.24;4314788;81;21038;-83
2021/10/09 03:55:18;;;;;;;24.07;12.28;;;;;;;2.83;78.25;100580.91;4290809;81;21084;-83
2021/10/09 04:01:21;;;;;;;27.93;12.28;;;;;;;2.75;78.41;100586.92;4311747;81;21031;-83
2021/10/09 04:07:22;;;;;;;27.60;12.50;;;;;;;2.71;78.49;100584.52;4312656;81;22225;-83
2021/10/09 04:13:24;;;;;;;21.15;12.15;;;;;;;2.59;78.25;100587.34;4315342;81;21109;-84
2021/10/09 04:19:26;;;;;;;20.45;12.10;;;;;;;2.43;77.87;100594.77;4314233;81;21491;-84
2021/10/09 04:25:30;;;;;;;24.15;12.20;;;;;;;2.05;78.04;100596.94;4311561;81;22200;-84
2021/10/09 04:31:33;;;;;;;22.20;12.20;;;;;;;1.91;78.25;100593.81;4326922;81;21028;-84
2021/10/09 04:37:35;;;;;;;23.87;12.03;;;;;;;1.91;78.91;100599.20;4323160;81;21007;-84
2021/10/09 04:43:37;;;;;;;21.20;12.28;;;;;;;1.88;79.01;100595.16;4319690;81;21035;-84
2021/10/09 04:49:38;;;;;;;27.07;13.62;;;;;;;1.71;79.25;100596.63;4324802;82;21022;-83
2021/10/09 04:55:40;;;;;;;28.33;12.47;;;;;;;1.83;79.38;100606.55;4306677;81;29466;-84
2021/10/09 05:01:49;;;;;;;24.07;13.15;;;;;;;1.70;79.36;100608.49;4243975;82;21683;-84
2021/10/09 05:07:51;;;;;;;26.45;13.78;;;;;;;1.65;79.84;100610.67;4258581;81;21035;-84
2021/10/09 05:13:54;;;;;;;27.60;13.72;;;;;;;1.71;80.16;100619.58;4260267;82;21055;-83
2021/10/09 05:19:57;;;;;;;28.52;13.35;;;;;;;1.86;80.59;100623.00;4264831;81;21135;-83
2021/10/09 05:25:58;;;;;;;29.32;15.38;;;;;;;1.98;80.55;100624.00;4271233;81;21052;-83
2021/10/09 05:32:06;;;;;;;26.30;13.70;;;;;;;2.03;80.65;100622.63;4308561;80;21087;-83
2021/10/09 05:38:10;;;;;;;31.57;13.43;;;;;;;2.06;80.89;100630.16;4320106;80;21078;-82
2021/10/09 05:44:12;;;;;;;29.77;13.58;;;;;;;2.11;80.66;100628.25;4303990;80;21054;-84
2021/10/09 05:50:34;;;;;;;34.58;14.58;;;;;;;2.22;80.86;100628.98;4304420;80;21005;-83
2021/10/09 06:59:44;;;;;;;23.47;13.88;;;;;;;4.57;79.16;100685.13;4315388;80;21098;-84
2021/10/09 07:05:48;;;;;;;21.77;13.68;;;;;;;4.56;79.26;100690.28;4333838;80;21021;-83
2021/10/09 07:12:03;;;;;;;26.30;14.83;;;;;;;4.65;79.23;100697.45;4343617;80;21658;-82
2021/10/09 07:18:12;;;;;;;23.25;13.75;;;;;;;4.90;79.20;100702.23;4347618;80;21583;-82
2021/10/09 07:24:11;;;;;;;30.72;14.80;;;;;;;5.18;78.97;100700.67;4348377;80;21107;-83
2021/10/09 07:30:14;;;;;;;30.72;15.38;;;;;;;5.55;78.98;100709.22;4305419;80;21054;-82
2021/10/09 07:36:16;;;;;;;29.40;14.40;;;;;;;5.87;78.64;100713.25;4311371;80;21565;-82
2021/10/09 07:42:18;;;;;;;25.75;13.43;;;;;;;6.12;78.47;100716.81;4306086;80;21064;-84
2021/10/09 07:48:19;;;;;;;24.67;13.32;;;;;;;6.40;78.33;100723.23;4284224;80;21024;-82
2021/10/09 07:54:21;;;;;;;25.45;14.35;;;;;;;6.60;77.76;100723.90;4289075;80;21098;-82
2021/10/09 08:00:22;;;;;;;26.80;13.55;;;;;;;6.73;77.60;100721.16;4305040;80;21067;-82
2021/10/09 08:06:26;;;;;;;27.98;14.80;;;;;;;6.85;77.37;100726.84;4302795;80;21031;-81
2021/10/09 08:12:28;;;;;;;26.52;13.75;;;;;;;6.91;77.02;100723.43;4300889;80;21098;-81
2021/10/09 08:18:29;;;;;;;35.35;14.68;;;;;;;7.06;76.67;100717.09;4302961;80;21031;-83
2021/10/09 08:24:41;;;;;;;25.43;13.53;;;;;;;7.23;76.54;100717.20;4302630;80;21422;-81
2021/10/09 08:37:19;;;;;;;23.83;12.58;;;;;;;8.51;75.71;100715.50;4361076;80;21016;-81
2021/10/09 08:43:10;;;;;;;21.25;12.25;;;;;;;9.40;74.64;100710.38;4354278;80;21557;-81
2021/10/09 08:49:11;;;;;;;22.02;12.47;;;;;;;10.30;74.01;100697.28;4361851;80;21540;-83
2021/10/09 08:55:28;;;;;;;17.42;11.20;;;;;;;11.04;73.59;100689.34;4359621;80;21449;-82
2021/10/09 09:01:37;;;;;;;20.75;10.48;;;;;;;11.83;72.95;100686.23;4360728;80;21035;-82
2021/10/09 09:08:11;;;;;;;19.15;11.83;;;;;;;12.17;64.24;100672.03;4361280;80;21077;-82
2021/10/09 09:27:05;;;;;;;19.23;10.90;;;;;;;13.82;67.51;100671.20;4362385;80;21000;-81
2021/10/09 09:39:06;;;;;;;16.42;8.58;;;;;;;14.70;65.91;100666.36;4297284;80;21090;-83
2021/10/09 09:45:10;;;;;;;18.30;8.83;;;;;;;15.24;64.39;100660.70;4201257;82;21792;-82
2021/10/09 09:51:17;;;;;;;16.27;9.03;;;;;;;15.48;61.63;100663.97;4292742;80;21047;-83
2021/10/09 09:57:20;;;;;;;12.88;8.45;;;;;;;15.52;62.16;100662.06;4291930;80;21004;-82
2021/10/09 10:03:24;;;;;;;15.72;8.08;;;;;;;15.69;59.57;100664.32;4308717;80;21506;-83
2021/10/09 10:09:30;;;;;;;15.20;7.67;;;;;;;15.49;57.86;100663.38;4302052;80;21639;-82
2021/10/09 10:15:32;;;;;;;14.45;7.83;;;;;;;15.35;53.51;100656.99;4303868;80;21020;-82
2021/10/09 10:21:45;;;;;;;13.25;7.05;;;;;;;15.61;54.25;100648.80;4299965;80;21030;-81
2021/10/09 10:28:03;;;;;;;16.20;6.70;;;;;;;15.97;53.34;100650.77;4306737;80;21064;-83
2021/10/09 10:34:24;;;;;;;12.03;6.00;;;;;;;15.89;52.69;100647.68;4354171;80;22101;-81
2021/10/09 10:40:50;;;;;;;15.48;6.35;;;;;;;15.51;48.05;100638.39;4353371;80;21110;-81
2021/10/09 10:46:55;;;;;;;9.73;6.53;;;;;;;15.04;49.32;100629.62;4355439;80;21016;-82
2021/10/09 10:53:01;;;;;;;14.60;6.90;;;;;;;14.40;45.90;100638.33;4354773;80;22208;-81
2021/10/09 10:59:34;;;;;;;14.63;7.70;;;;;;;13.82;45.89;100631.29;4344309;80;21051;-82
2021/10/09 11:05:36;;;;;;;;;;;;;;;13.10;45.93;100630.98;4362013;80;21015;-82
2021/10/09 11:11:42;;;;;;;14.00;8.35;;;;;;;13.20;46.52;100634.02;4350309;80;20125;-82
2021/10/09 11:17:48;;;;;;;14.87;7.75;;;;;;;13.42;46.31;100622.41;4179088;83;21088;-81
2021/10/09 11:23:56;;;;;;;11.68;7.15;;;;;;;13.46;46.65;100623.88;4358242;80;21016;-82
2021/10/09 11:30:06;;;;;;;10.63;6.03;;;;;;;13.44;46.29;100607.73;4346277;80;21048;-81
2021/10/09 11:36:08;;;;;;;10.25;6.58;;;;;;;13.13;45.01;100611.03;4330159;80;21610;-83
2021/10/09 11:42:13;;;;;;;19.50;9.00;;;;;;;12.94;46.39;100604.01;4344963;80;21487;-81
2021/10/09 12:00:48;;;;;;;13.10;6.00;;;;;;;12.56;45.87;100582.55;4343891;80;21104;-81
2021/10/09 12:06:59;;;;;;;12.33;6.60;;;;;;;12.29;46.53;100580.61;4348455;80;21048;-82
2021/10/09 12:13:04;;;;;;;12.07;6.70;;;;;;;12.22;46.66;100581.76;4352417;80;21100;-81
2021/10/09 12:19:12;;;;;;;14.20;6.25;;;;;;;12.15;46.42;100570.58;4344928;80;21111;-82
2021/10/09 12:25:26;;;;;;;12.40;6.80;;;;;;;12.05;46.56;100569.68;4351166;80;21545;-82
2021/10/09 12:31:30;;;;;;;13.00;8.13;;;;;;;11.83;46.36;100564.69;4352219;80;21040;-81
2021/10/09 12:37:34;;;;;;;16.50;7.10;;;;;;;11.75;45.57;100570.53;4371786;80;21654;-82
2021/10/09 12:43:35;;;;;;;17.65;8.10;;;;;;;11.67;46.30;100567.34;4359700;80;21118;-81
2021/10/09 12:49:36;;;;;;;15.43;7.28;;;;;;;11.68;46.90;100570.89;4363000;80;21480;-83
2021/10/09 12:55:40;;;;;;;13.18;7.47;;;;;;;11.61;46.33;100563.77;4243892;82;21120;-81
2021/10/09 13:01:41;;;;;;;15.28;7.12;;;;;;;11.51;46.59;100560.13;4358396;80;21532;-81
2021/10/09 13:07:46;;;;;;;13.15;6.87;;;;;;;11.43;46.68;100548.70;4352995;80;20993;-82
2021/10/09 13:13:47;;;;;;;14.78;7.42;;;;;;;11.40;46.89;100539.20;4339658;80;21012;-83
2021/10/09 13:19:48;;;;;;;21.97;7.97;;;;;;;11.38;46.82;100546.18;4343980;80;22177;-82
2021/10/09 13:25:49;;;;;;;16.10;6.70;;;;;;;11.41;46.78;100540.82;4352044;80;21860;-82
2021/10/09 13:31:50;;;;;;;19.12;8.03;;;;;;;11.30;46.56;100547.09;4353697;80;21606;-81
2021/10/09 13:38:01;;;;;;;18.82;7.75;;;;;;;11.24;46.99;100534.75;4349949;80;21124;-81
2021/10/09 13:43:58;;;;;;;13.17;7.17;;;;;;;11.24;46.75;100539.68;4349542;80;21611;-81
2021/10/09 13:49:59;;;;;;;17.50;8.50;;;;;;;11.29;46.12;100533.17;4353699;80;21502;-81
2021/10/09 13:56:00;;;;;;;19.48;9.53;;;;;;;11.24;46.17;100538.31;4367388;80;21063;-83
2021/10/09 14:02:01;;;;;;;17.65;9.20;;;;;;;11.11;47.11;100536.69;4360712;80;21476;-82
2021/10/09 14:08:04;;;;;;;17.62;9.08;;;;;;;11.05;47.16;100532.02;4353995;80;21524;-82
2021/10/09 14:14:06;;;;;;;21.73;8.85;;;;;;;11.01;47.25;100535.19;4354304;80;21603;-82
2021/10/09 14:20:10;;;;;;;19.57;8.75;;;;;;;10.96;47.48;100528.55;4354149;80;21016;-81
2021/10/09 14:26:11;;;;;;;20.62;9.53;;;;;;;10.95;47.50;100533.81;4357206;80;21633;-82
2021/10/09 14:32:13;;;;;;;24.40;8.18;;;;;;;10.90;47.19;100529.11;4322677;80;21039;-81
2021/10/09 14:38:15;;;;;;;21.82;8.95;;;;;;;10.78;46.75;100517.58;4177105;82;21085;-82
2021/10/09 14:44:16;;;;;;;17.73;8.18;;;;;;;10.67;46.98;100521.89;4198173;82;21507;-80
2021/10/09 15:21:16;;;;;;;16.90;8.38;;;;;;;10.19;47.66;100520.92;4301643;80;21035;-81
2021/10/09 15:27:18;;;;;;;19.60;8.23;;;;;;;10.08;48.18;100526.56;4305078;79;21093;-81
2021/10/09 15:33:19;;;;;;;17.17;7.92;;;;;;;9.99;48.38;100526.59;4318456;80;21063;-82
2021/10/09 15:39:20;;;;;;;17.17;7.65;;;;;;;9.89;48.93;100530.30;4302402;80;21142;-82
2021/10/09 15:45:22;;;;;;;18.00;7.85;;;;;;;9.76;49.90;100533.53;4293279;80;21041;-82
2021/10/09 15:51:23;;;;;;;18.05;8.05;;;;;;;9.62;50.27;100534.34;4299650;80;21162;-82
2021/10/09 15:57:25;;;;;;;17.12;8.73;;;;;;;9.49;51.12;100532.09;4204431;82;21101;-82
2021/10/09 16:03:26;;;;;;;19.30;8.68;;;;;;;9.30;51.81;100534.45;4190762;82;21035;-82
2021/10/09 16:09:27;;;;;;;21.87;10.80;;;;;;;8.99;53.35;100540.77;4145485;84;21092;-82
2021/10/09 16:15:33;;;;;;;19.32;9.63;;;;;;;8.77;53.76;100539.64;4192879;83;21057;-83
2021/10/09 16:21:32;;;;;;;24.55;10.65;;;;;;;8.47;53.42;100543.98;4307608;80;21454;-82
2021/10/09 16:27:33;;;;;;;27.17;11.68;;;;;;;8.13;54.73;100546.70;4296686;80;21110;-82
2021/10/09 16:33:34;;;;;;;26.52;13.28;;;;;;;7.79;54.71;100549.66;4347504;80;21062;-81
2021/10/09 16:39:36;;;;;;;43.87;19.20;;;;;;;7.49;55.79;100549.19;4241356;82;21077;-82
2021/10/09 16:45:37;;;;;;;45.88;18.82;;;;;;;7.27;56.04;100553.37;4208733;82;21089;-82
2021/10/09 16:51:39;;;;;;;34.92;16.48;;;;;;;7.11;56.45;100545.37;4216380;82;21081;-82
2021/10/09 16:57:40;;;;;;;24.45;12.69;;;;;;;6.97;57.75;100557.50;4090508;82;10000270;-82
2021/10/09 17:03:41;;;;;;;39.58;19.30;;;;;;;6.89;59.51;100560.98;4195504;83;21022;-81
2021/10/09 17:09:44;;;;;;;29.82;15.68;;;;;;;6.87;59.10;100560.48;4196990;82;21030;-82
2021/10/09 17:15:45;;;;;;;32.20;16.32;;;;;;;6.84;60.06;100561.11;4191504;83;21055;-82
2021/10/09 17:21:46;;;;;;;57.83;23.73;;;;;;;6.65;59.78;100561.88;4194771;83;21963;-82
2021/10/09 17:27:48;;;;;;;45.60;23.90;;;;;;;6.48;60.13;100563.13;4204938;83;21039;-82
2021/10/09 17:33:49;;;;;;;56.53;25.65;;;;;;;6.20;60.36;100566.54;4186748;83;21035;-81
2021/10/09 17:39:51;;;;;;;54.00;25.92;;;;;;;5.94;60.67;100572.30;4206750;83;21033;-83
2021/10/09 17:45:55;;;;;;;48.92;21.40;;;;;;;5.74;60.98;100574.89;4190608;83;21084;-82
2021/10/09 17:51:56;;;;;;;53.95;28.40;;;;;;;5.60;62.21;100573.30;4202380;83;21006;-82
2021/10/09 17:57:57;;;;;;;49.63;25.20;;;;;;;5.55;62.75;100576.92;4205263;83;21579;-83
2021/10/09 18:03:59;;;;;;;46.30;26.75;;;;;;;5.47;63.96;100576.27;4188187;82;21045;-82
2021/10/09 18:10:02;;;;;;;70.28;36.68;;;;;;;5.36;64.32;100577.59;4201679;82;21046;-82
2021/10/09 18:16:04;;;;;;;62.30;31.90;;;;;;;5.21;63.85;100564.87;4165972;84;21022;-82
2021/10/09 18:22:05;;;;;;;67.90;35.80;;;;;;;5.03;64.68;100560.34;4182497;83;21505;-82
2021/10/09 18:28:07;;;;;;;62.17;34.03;;;;;;;4.90;64.95;100559.23;4195257;83;21118;-82
2021/10/09 18:34:09;;;;;;;68.22;33.83;;;;;;;4.87;65.33;100558.45;4123414;83;21134;-82
2021/10/09 18:40:10;;;;;;;61.15;33.02;;;;;;;4.77;65.78;100562.72;4113235;85;21129;-82
2021/10/09 18:46:11;;;;;;;54.95;30.40;;;;;;;4.57;66.26;100559.02;4118048;85;21096;-83
2021/10/09 18:52:13;;;;;;;62.27;31.35;;;;;;;4.49;66.43;100560.50;4111115;85;21137;-83
2021/10/09 18:58:15;;;;;;;84.60;42.35;;;;;;;4.41;66.54;100553.58;4120034;84;21090;-82
2021/10/09 19:04:17;;;;;;;83.12;40.65;;;;;;;4.37;66.88;100550.66;4115374;85;21017;-82
2021/10/09 19:10:18;;;;;;;81.25;39.18;;;;;;;4.24;66.96;100543.30;4265112;82;21118;-82
2021/10/09 19:16:19;;;;;;;73.90;34.50;;;;;;;4.15;67.57;100542.91;4264909;82;21077;-81
2021/10/09 19:22:23;;;;;;;71.37;34.78;;;;;;;3.92;67.10;100545.95;4264475;81;21107;-82
2021/10/09 19:28:24;;;;;;;63.25;32.45;;;;;;;3.89;68.57;100547.08;4263807;82;21110;-81
2021/10/09 19:34:47;;;;;;;85.07;42.03;;;;;;;4.06;68.81;100546.83;4345444;80;21009;-82
2021/10/09 19:40:34;;;;;;;68.15;32.88;;;;;;;3.90;69.07;100546.01;4349708;80;21087;-82
2021/10/09 19:46:38;;;;;;;74.27;32.63;;;;;;;3.79;69.38;100548.03;4360129;80;21059;-82
2021/10/09 19:52:41;;;;;;;76.47;34.65;;;;;;;3.76;69.36;100550.55;4351727;80;21024;-82
2021/10/09 19:58:42;;;;;;;99.70;44.45;;;;;;;3.70;69.48;100548.98;4354122;80;21043;-81
2021/10/09 20:04:43;;;;;;;99.62;43.23;;;;;;;3.68;69.62;100547.92;4351880;80;21548;-81
2021/10/09 20:10:53;;;;;;;80.55;38.53;;;;;;;3.58;69.96;100547.27;4378285;80;21063;-81
2021/10/09 20:16:50;;;;;;;57.25;26.48;;;;;;;3.44;70.39;100548.53;4356487;80;21012;-82
2021/10/09 20:22:59;;;;;;;57.88;27.55;;;;;;;3.30;70.70;100544.92;4365269;80;21576;-81
2021/10/09 20:29:00;;;;;;;60.65;29.98;;;;;;;3.21;71.17;100550.73;4363823;80;21481;-81
2021/10/09 20:35:01;;;;;;;57.62;29.82;;;;;;;3.09;71.73;100544.36;4328915;80;21108;-82
2021/10/09 20:41:03;;;;;;;55.43;28.00;;;;;;;2.99;71.26;100547.73;4309300;80;21043;-81
2021/10/09 20:47:05;;;;;;;54.83;27.62;;;;;;;3.13;72.51;100543.24;4290580;80;21316;-82
2021/10/09 20:53:06;;;;;;;52.67;27.05;;;;;;;3.09;72.32;100538.13;4312400;80;21082;-81
2021/10/09 20:59:08;;;;;;;58.30;29.65;;;;;;;3.02;72.29;100539.04;4300785;80;21545;-81
2021/10/09 21:05:09;;;;;;;65.35;32.00;;;;;;;2.94;72.84;100535.61;4306749;80;21364;-81
2021/10/09 21:23:40;;;;;;;70.70;34.55;;;;;;;2.55;72.83;100525.48;4303506;81;21065;-82
2021/10/09 21:29:42;;;;;;;67.03;35.50;;;;;;;2.41;72.98;100517.77;4305907;80;21074;-81
2021/10/09 21:35:43;;;;;;;72.62;35.28;;;;;;;2.33;73.75;100507.58;4347061;80;21433;-82
2021/10/09 21:41:47;;;;;;;61.02;32.28;;;;;;;2.36;74.24;100500.25;4358778;80;21069;-81
2021/10/09 21:47:48;;;;;;;62.58;30.08;;;;;;;2.53;74.68;100497.38;4173061;83;21090;-82
2021/10/09 21:53:50;;;;;;;55.70;29.93;;;;;;;2.77;74.85;100496.05;4176858;83;21517;-83
2021/10/09 22:37:25;;;;;;;61.05;27.50;;;;;;;2.08;75.25;100464.58;4302494;80;21541;-81
2021/10/09 22:43:32;;;;;;;62.93;29.67;;;;;;;2.30;76.18;100463.56;4303680;80;21496;-81
2021/10/09 22:49:30;;;;;;;60.95;28.20;;;;;;;2.54;76.36;100456.27;4319904;81;20991;-81
2021/10/09 22:55:31;;;;;;;58.60;29.27;;;;;;;2.67;76.53;100456.41;4314414;80;21071;-82
2021/10/09 23:01:32;;;;;;;66.70;30.85;;;;;;;2.77;76.52;100458.19;4316325;80;21044;-81
2021/10/09 23:07:34;;;;;;;58.28;29.80;;;;;;;2.65;76.14;100452.36;4296495;81;21069;-82
2021/10/09 23:13:35;;;;;;;63.13;28.02;;;;;;;2.61;76.04;100456.74;4306709;80;21023;-83
2021/10/09 23:19:37;;;;;;;63.95;28.65;;;;;;;2.58;76.05;100457.32;4294832;80;21051;-83
2021/10/09 23:25:38;;;;;;;64.17;29.35;;;;;;;2.38;76.04;100444.81;4302965;80;21066;-83
2021/10/09 23:31:39;;;;;;;54.67;27.50;;;;;;;2.19;76.30;100443.13;4304187;80;21071;-83
2021/10/09 23:37:41;;;;;;;55.90;27.25;;;;;;;2.10;76.49;100440.23;4303733;81;21012;-84
2021/10/09 23:43:44;;;;;;;59.50;28.62;;;;;;;2.16;76.76;100436.95;4306957;80;21021;-84
2021/10/09 23:49:45;;;;;;;68.05;30.82;;;;;;;2.13;76.69;100434.82;4295549;80;21488;-84
2021/10/09 23:55:46;;;;;;;62.53;28.17;;;;;;;1.94;76.70;100440.13;4312253;80;21104;-83
